Time;durP1;ratioP1;P1;durP2;ratioP2;P2;SDS_P1;SDS_P2;PMS_P1;PMS_P2;Temp;Humidity;BMP_temperature;BMP_pressure;BME280_temperature;BME280_humidity;BME280_pressure;Samples;Min_cycle;Max_cycle;Signal;HPM_P1;HPM_P2
2022/01/19 00:00:19;;;;;;;17.23;13.30;;;;;;;;;;5035122;28;20133;-55
2022/01/19 00:02:45;;;;;;;32.70;20.70;;;;;;;;;;5035017;28;20494;-52
2022/01/19 00:05:11;;;;;;;21.33;11.73;;;;;;;;;;5035236;28;20037;-54
2022/01/19 00:07:38;;;;;;;21.53;13.47;;;;;;;;;;5035063;28;20025;-55
2022/01/19 00:10:08;;;;;;;28.47;16.50;;;;;;;;;;5034568;28;20453;-54
2022/01/19 00:12:34;;;;;;;17.55;12.65;;;;;;;;;;5035031;28;20029;-54
2022/01/19 00:15:00;;;;;;;23.73;12.23;;;;;;;;;;5035310;28;20037;-53
2022/01/19 00:17:26;;;;;;;18.47;11.33;;;;;;;;;;5035169;28;20467;-55
2022/01/19 00:19:52;;;;;;;12.00;9.53;;;;;;;;;;5034272;28;20029;-53
2022/01/19 00:22:18;;;;;;;14.57;9.93;;;;;;;;;;5034732;28;20033;-54
2022/01/19 00:24:44;;;;;;;12.50;7.77;;;;;;;;;;5034886;28;20040;-52
2022/01/19 00:27:11;;;;;;;11.50;8.67;;;;;;;;;;5034512;28;20061;-51
2022/01/19 00:29:37;;;;;;;11.13;8.27;;;;;;;;;;5034291;28;20038;-55
2022/01/19 00:32:03;;;;;;;13.13;9.07;;;;;;;;;;5046171;28;20036;-55
2022/01/19 00:34:29;;;;;;;14.40;8.33;;;;;;;;;;5054660;28;20068;-54
2022/01/19 00:36:56;;;;;;;10.80;8.47;;;;;;;;;;5054576;28;20489;-55
2022/01/19 00:39:30;;;;;;;12.30;9.13;;;;;;;;;;5053975;28;20485;-55
2022/01/19 00:41:56;;;;;;;11.63;8.43;;;;;;;;;;5054671;28;20458;-52
2022/01/19 00:44:22;;;;;;;15.97;9.03;;;;;;;;;;5054682;28;20074;-55
2022/01/19 00:46:48;;;;;;;9.87;8.87;;;;;;;;;;5054607;28;20025;-52
2022/01/19 00:49:14;;;;;;;7.67;6.80;;;;;;;;;;5053966;28;20040;-55
2022/01/19 00:51:41;;;;;;;14.67;8.47;;;;;;;;;;5054171;28;20429;-55
2022/01/19 00:54:07;;;;;;;9.57;6.90;;;;;;;;;;5038260;28;20026;-55
2022/01/19 00:56:34;;;;;;;9.83;6.97;;;;;;;;;;5034508;28;20048;-55
2022/01/19 00:59:00;;;;;;;9.83;6.83;;;;;;;;;;5033711;28;20065;-53
2022/01/19 01:01:26;;;;;;;9.40;6.43;;;;;;;;;;5034293;28;20036;-54
2022/01/19 01:03:52;;;;;;;7.63;6.83;;;;;;;;;;5034516;28;20096;-54
2022/01/19 01:06:19;;;;;;;9.20;7.10;;;;;;;;;;5034024;28;20037;-52
2022/01/19 01:08:45;;;;;;;12.07;6.83;;;;;;;;;;5033229;28;20068;-53
2022/01/19 01:11:11;;;;;;;10.00;7.57;;;;;;;;;;5034257;28;20021;-54
2022/01/19 01:19:10;;;;;;;8.60;7.53;;;;;;;;;;5031619;28;20041;-53
2022/01/19 01:21:36;;;;;;;9.63;8.00;;;;;;;;;;5033907;28;20025;-55
2022/01/19 01:24:03;;;;;;;7.10;6.37;;;;;;;;;;5033793;28;20033;-55
2022/01/19 01:26:29;;;;;;;10.87;6.77;;;;;;;;;;5034171;28;20046;-54
2022/01/19 01:28:55;;;;;;;8.50;7.53;;;;;;;;;;5033183;28;20418;-54
2022/01/19 01:31:21;;;;;;;7.93;6.77;;;;;;;;;;5039331;28;20363;-55
2022/01/19 01:33:47;;;;;;;7.63;6.77;;;;;;;;;;5053426;28;20090;-55
2022/01/19 01:36:13;;;;;;;9.17;7.10;;;;;;;;;;5053626;28;20080;-53
2022/01/19 01:38:39;;;;;;;8.60;6.40;;;;;;;;;;5052802;28;20125;-53
2022/01/19 01:41:08;;;;;;;9.93;7.40;;;;;;;;;;5053024;28;20029;-54
2022/01/19 01:43:34;;;;;;;11.93;7.70;;;;;;;;;;5053244;28;20028;-55
2022/01/19 01:46:06;;;;;;;7.27;5.87;;;;;;;;;;5053457;28;20372;-52
2022/01/19 01:48:40;;;;;;;9.43;6.53;;;;;;;;;;5052926;28;20025;-54
2022/01/19 01:53:51;;;;;;;7.33;6.43;;;;;;;;;;5039794;28;20036;-55
2022/01/19 01:56:17;;;;;;;9.47;7.57;;;;;;;;;;5033353;28;20026;-56
2022/01/19 01:58:44;;;;;;;10.53;8.17;;;;;;;;;;5032266;28;20053;-56
2022/01/19 02:01:10;;;;;;;11.17;8.50;;;;;;;;;;5033035;28;20026;-54
2022/01/19 02:03:39;;;;;;;9.27;8.17;;;;;;;;;;5032920;28;20025;-55
2022/01/19 02:08:51;;;;;;;12.63;7.53;;;;;;;;;;5032498;28;20535;-54
2022/01/19 02:11:36;;;;;;;9.70;8.37;;;;;;;;;;5032868;28;20029;-53
2022/01/19 02:23:03;;;;;;;9.13;7.60;;;;;;;;;;5032805;28;20124;-55
2022/01/19 02:25:35;;;;;;;15.67;8.73;;;;;;;;;;5032741;28;20394;-53
2022/01/19 02:41:38;;;;;;;8.83;7.07;;;;;;;;;;5052599;28;20126;-51
2022/01/19 02:44:04;;;;;;;10.30;8.03;;;;;;;;;;5052150;28;20035;-53
2022/01/19 02:46:51;;;;;;;10.83;8.13;;;;;;;;;;5052343;28;20086;-53
2022/01/19 02:49:17;;;;;;;9.83;7.93;;;;;;;;;;5051405;28;20044;-55
2022/01/19 02:51:44;;;;;;;7.70;6.93;;;;;;;;;;5052303;28;20117;-54
2022/01/19 02:54:14;;;;;;;11.10;7.97;;;;;;;;;;5034950;28;20447;-55
2022/01/19 02:56:44;;;;;;;8.47;7.57;;;;;;;;;;5032419;28;20026;-53
2022/01/19 02:59:37;;;;;;;9.80;7.77;;;;;;;;;;5031242;28;20116;-55
2022/01/19 03:10:16;;;;;;;6.90;6.20;;;;;;;;;;5030835;28;20183;-55
2022/01/19 03:12:43;;;;;;;11.80;7.90;;;;;;;;;;5032020;28;20108;-53
2022/01/19 03:15:09;;;;;;;11.53;8.30;;;;;;;;;;5032074;28;20028;-57
2022/01/19 03:17:35;;;;;;;9.77;8.57;;;;;;;;;;5032055;28;20022;-55
2022/01/19 03:20:01;;;;;;;11.50;7.73;;;;;;;;;;5031262;28;20045;-56
2022/01/19 03:22:34;;;;;;;10.20;7.27;;;;;;;;;;5032118;28;20025;-55
2022/01/19 03:25:00;;;;;;;13.67;7.57;;;;;;;;;;5031957;28;20119;-55
2022/01/19 03:27:26;;;;;;;13.03;9.00;;;;;;;;;;5032085;28;20021;-51
2022/01/19 03:29:52;;;;;;;14.17;7.43;;;;;;;;;;5031398;28;20472;-53
2022/01/19 03:32:18;;;;;;;20.83;7.60;;;;;;;;;;5045210;28;20055;-55
2022/01/19 03:34:44;;;;;;;18.43;8.57;;;;;;;;;;5051745;28;20040;-51
2022/01/19 03:37:11;;;;;;;13.77;8.60;;;;;;;;;;5051975;28;20048;-53
2022/01/19 03:39:37;;;;;;;11.63;7.40;;;;;;;;;;5050764;28;20529;-55
2022/01/19 03:42:03;;;;;;;12.03;8.27;;;;;;;;;;5052045;28;20025;-52
2022/01/19 03:44:29;;;;;;;10.37;8.27;;;;;;;;;;5051653;28;20033;-52
2022/01/19 03:47:00;;;;;;;12.13;9.30;;;;;;;;;;5051620;28;20462;-52
2022/01/19 03:49:28;;;;;;;11.60;8.83;;;;;;;;;;5051268;28;20037;-54
2022/01/19 03:51:58;;;;;;;12.47;8.40;;;;;;;;;;5051739;28;20052;-54
2022/01/19 03:54:25;;;;;;;9.73;7.50;;;;;;;;;;5033389;28;20037;-51
2022/01/19 03:56:51;;;;;;;9.33;8.40;;;;;;;;;;5031777;28;20025;-53
2022/01/19 03:59:17;;;;;;;13.07;9.53;;;;;;;;;;5031297;28;20464;-51
2022/01/19 04:01:43;;;;;;;12.50;9.63;;;;;;;;;;5031191;28;20026;-54
2022/01/19 04:07:15;;;;;;;10.97;9.80;;;;;;;;;;5035449;28;20052;-55
2022/01/19 04:09:41;;;;;;;13.30;8.83;;;;;;;;;;5034322;28;20091;-55
2022/01/19 04:12:08;;;;;;;10.23;8.67;;;;;;;;;;5034834;28;20087;-55
2022/01/19 04:14:34;;;;;;;12.27;10.73;;;;;;;;;;5035123;28;20032;-53
2022/01/19 04:17:02;;;;;;;14.90;9.03;;;;;;;;;;5035232;28;20348;-55
2022/01/19 04:19:32;;;;;;;15.63;9.97;;;;;;;;;;5034381;28;20041;-54
2022/01/19 04:21:59;;;;;;;9.30;8.33;;;;;;;;;;5034991;28;20025;-52
2022/01/19 04:24:26;;;;;;;13.60;11.47;;;;;;;;;;5034678;28;20025;-54
2022/01/19 04:29:37;;;;;;;12.23;10.27;;;;;;;;;;5034597;28;20040;-54
2022/01/19 04:32:10;;;;;;;11.97;10.43;;;;;;;;;;5041143;28;20040;-54
2022/01/19 04:34:40;;;;;;;11.10;9.63;;;;;;;;;;5054682;28;20056;-52
2022/01/19 04:37:27;;;;;;;13.68;10.18;;;;;;;;;;5054621;28;20464;-53
2022/01/19 05:01:59;;;;;;;12.47;9.43;;;;;;;;;;5053611;28;20494;-54
2022/01/19 05:04:35;;;;;;;9.93;8.93;;;;;;;;;;5053720;28;20040;-52
2022/01/19 05:07:13;;;;;;;11.83;9.57;;;;;;;;;;5051510;28;20040;-55
2022/01/19 05:09:57;;;;;;;10.57;9.23;;;;;;;;;;5053310;28;20036;-55
2022/01/19 05:15:09;;;;;;;11.67;8.37;;;;;;;;;;5053866;28;20087;-56
2022/01/19 05:17:38;;;;;;;14.17;10.60;;;;;;;;;;5053114;28;20036;-56
2022/01/19 05:20:08;;;;;;;12.30;8.57;;;;;;;;;;5053135;28;20479;-53
2022/01/19 05:22:34;;;;;;;13.60;10.20;;;;;;;;;;5054176;28;20132;-56
2022/01/19 05:25:00;;;;;;;11.07;8.27;;;;;;;;;;5053392;28;20502;-55
2022/01/19 05:27:26;;;;;;;9.17;7.53;;;;;;;;;;5051809;28;20044;-53
2022/01/19 05:29:52;;;;;;;15.33;8.77;;;;;;;;;;5052888;28;20028;-52
2022/01/19 05:32:18;;;;;;;16.53;8.17;;;;;;;;;;5053523;28;20021;-52
2022/01/19 05:34:44;;;;;;;9.87;8.73;;;;;;;;;;5053239;28;20033;-54
2022/01/19 05:37:10;;;;;;;17.37;9.43;;;;;;;;;;5053086;28;20033;-53
2022/01/19 05:39:36;;;;;;;11.60;9.47;;;;;;;;;;5050297;28;20032;-56
2022/01/19 05:42:03;;;;;;;11.50;9.17;;;;;;;;;;5053375;28;20033;-55
2022/01/19 05:44:29;;;;;;;11.93;8.60;;;;;;;;;;5053343;28;20422;-55
2022/01/19 05:46:55;;;;;;;10.70;8.40;;;;;;;;;;5053220;28;20036;-54
2022/01/19 05:49:21;;;;;;;11.47;8.93;;;;;;;;;;5052574;28;20033;-54
2022/01/19 05:51:47;;;;;;;11.63;9.30;;;;;;;;;;5052902;28;20371;-55
2022/01/19 05:54:14;;;;;;;13.30;9.70;;;;;;;;;;5052708;28;20032;-55
2022/01/19 05:56:40;;;;;;;9.70;8.70;;;;;;;;;;5052946;28;20099;-51
2022/01/19 05:59:05;;;;;;;10.73;9.57;;;;;;;;;;5052276;28;20120;-57
2022/01/19 06:01:31;;;;;;;14.97;9.30;;;;;;;;;;5053043;28;20032;-56
2022/01/19 06:03:57;;;;;;;9.63;8.20;;;;;;;;;;5053288;28;20029;-55
2022/01/19 06:06:24;;;;;;;13.27;9.90;;;;;;;;;;5052451;28;20102;-56
2022/01/19 06:09:00;;;;;;;12.93;9.23;;;;;;;;;;5050616;28;20036;-55
2022/01/19 06:11:26;;;;;;;8.00;7.27;;;;;;;;;;5052955;28;20032;-54
2022/01/19 06:13:52;;;;;;;10.57;9.43;;;;;;;;;;5052664;28;20025;-52
2022/01/19 06:16:18;;;;;;;13.13;10.27;;;;;;;;;;5052727;28;20047;-55
2022/01/19 06:18:44;;;;;;;11.37;7.20;;;;;;;;;;5052202;28;20029;-54
2022/01/19 06:21:11;;;;;;;10.60;8.73;;;;;;;;;;5051524;28;20067;-55
2022/01/19 06:23:37;;;;;;;16.77;10.63;;;;;;;;;;5049222;28;20047;-56
2022/01/19 06:26:04;;;;;;;9.93;8.93;;;;;;;;;;5049983;28;20075;-54
2022/01/19 06:28:30;;;;;;;6.93;6.23;;;;;;;;;;5050105;28;20060;-55
2022/01/19 06:30:56;;;;;;;11.80;8.33;;;;;;;;;;5051789;28;20025;-56
2022/01/19 06:33:22;;;;;;;12.07;9.73;;;;;;;;;;5051562;28;20031;-56
2022/01/19 06:35:48;;;;;;;13.83;9.87;;;;;;;;;;5050452;28;20032;-53
2022/01/19 06:38:14;;;;;;;17.33;9.40;;;;;;;;;;5051043;28;20044;-55
2022/01/19 06:40:40;;;;;;;11.73;8.67;;;;;;;;;;5051291;28;20387;-55
2022/01/19 06:43:06;;;;;;;14.83;10.20;;;;;;;;;;5051276;28;20091;-54
2022/01/19 06:45:32;;;;;;;14.53;9.37;;;;;;;;;;5051042;28;20032;-56
2022/01/19 06:47:58;;;;;;;12.07;9.37;;;;;;;;;;5050639;28;20067;-56
2022/01/19 06:50:25;;;;;;;11.30;10.07;;;;;;;;;;5051833;28;20171;-55
2022/01/19 06:52:51;;;;;;;12.27;10.00;;;;;;;;;;5046864;28;20029;-56
2022/01/19 06:55:18;;;;;;;14.63;10.87;;;;;;;;;;5052088;28;20021;-56
2022/01/19 06:57:47;;;;;;;14.83;9.43;;;;;;;;;;5050621;28;20425;-58
2022/01/19 07:00:14;;;;;;;14.83;10.80;;;;;;;;;;5050528;28;20144;-53
2022/01/19 07:02:40;;;;;;;12.90;9.13;;;;;;;;;;5049933;28;20112;-57
2022/01/19 07:05:06;;;;;;;11.47;9.77;;;;;;;;;;5047481;28;20171;-56
2022/01/19 07:07:32;;;;;;;13.63;9.50;;;;;;;;;;5050048;28;20029;-52
2022/01/19 07:09:58;;;;;;;15.13;10.63;;;;;;;;;;5050354;28;20414;-55
2022/01/19 07:12:26;;;;;;;12.20;9.17;;;;;;;;;;5051653;28;20037;-55
2022/01/19 07:14:52;;;;;;;12.07;10.07;;;;;;;;;;5051173;28;20108;-55
2022/01/19 07:17:18;;;;;;;7.93;7.03;;;;;;;;;;5050287;28;20033;-55
2022/01/19 07:19:44;;;;;;;18.07;11.47;;;;;;;;;;5050796;28;20072;-56
2022/01/19 07:22:10;;;;;;;15.57;8.73;;;;;;;;;;5051375;28;20056;-56
2022/01/19 07:24:36;;;;;;;12.73;9.30;;;;;;;;;;5051088;28;20025;-54
2022/01/19 07:27:03;;;;;;;13.33;9.30;;;;;;;;;;5051053;28;20112;-55
2022/01/19 07:29:29;;;;;;;12.43;8.80;;;;;;;;;;5050014;28;20025;-55
2022/01/19 07:31:58;;;;;;;9.90;7.43;;;;;;;;;;5050593;28;20033;-56
2022/01/19 07:34:25;;;;;;;10.50;8.93;;;;;;;;;;5050195;28;20021;-56
2022/01/19 07:36:51;;;;;;;14.77;9.60;;;;;;;;;;5051620;28;20230;-55
2022/01/19 07:39:17;;;;;;;13.90;11.20;;;;;;;;;;5051276;28;20044;-56
2022/01/19 07:41:43;;;;;;;10.90;9.30;;;;;;;;;;5054281;28;20033;-57
2022/01/19 07:44:09;;;;;;;8.73;7.83;;;;;;;;;;5054213;28;20029;-55
2022/01/19 07:46:35;;;;;;;10.97;8.30;;;;;;;;;;5054184;28;20033;-55
2022/01/19 07:49:01;;;;;;;8.67;7.60;;;;;;;;;;5054942;28;20061;-56
2022/01/19 07:51:27;;;;;;;11.37;9.80;;;;;;;;;;5055432;28;20021;-56
2022/01/19 07:53:53;;;;;;;15.27;10.63;;;;;;;;;;5054641;28;20036;-55
2022/01/19 07:56:19;;;;;;;12.30;10.07;;;;;;;;;;5055029;28;20478;-56
2022/01/19 07:58:45;;;;;;;14.17;9.27;;;;;;;;;;5053923;28;20122;-55
2022/01/19 08:01:11;;;;;;;11.50;8.73;;;;;;;;;;5054035;28;20033;-56
2022/01/19 08:03:37;;;;;;;12.17;9.30;;;;;;;;;;5054285;28;20028;-56
2022/01/19 08:06:03;;;;;;;11.77;10.53;;;;;;;;;;5054250;28;20029;-57
2022/01/19 08:08:29;;;;;;;11.83;9.17;;;;;;;;;;5052902;28;20032;-55
2022/01/19 08:10:55;;;;;;;13.40;11.77;;;;;;;;;;5052800;28;20443;-57
2022/01/19 08:13:22;;;;;;;15.67;10.83;;;;;;;;;;5054143;28;20033;-56
2022/01/19 08:15:48;;;;;;;13.07;11.67;;;;;;;;;;5054241;28;20025;-55
2022/01/19 08:18:14;;;;;;;16.30;11.07;;;;;;;;;;5052973;28;20036;-53
2022/01/19 08:20:43;;;;;;;12.70;11.43;;;;;;;;;;5053945;28;20048;-52
2022/01/19 08:23:09;;;;;;;12.83;11.00;;;;;;;;;;5054346;28;20021;-56
2022/01/19 08:25:35;;;;;;;13.00;10.93;;;;;;;;;;5054035;28;20028;-56
2022/01/19 08:28:01;;;;;;;12.50;10.17;;;;;;;;;;5053539;28;20029;-56
2022/01/19 08:30:27;;;;;;;12.37;9.93;;;;;;;;;;5053263;28;20469;-55
2022/01/19 08:32:53;;;;;;;18.70;11.63;;;;;;;;;;5053986;28;20039;-55
2022/01/19 08:35:19;;;;;;;13.10;10.53;;;;;;;;;;5054295;28;20407;-56
2022/01/19 08:37:45;;;;;;;15.40;12.43;;;;;;;;;;5054042;28;20087;-55
2022/01/19 08:40:12;;;;;;;27.00;13.17;;;;;;;;;;5053523;28;20102;-56
2022/01/19 08:42:38;;;;;;;16.57;13.73;;;;;;;;;;5053611;28;20021;-53
2022/01/19 08:45:07;;;;;;;12.43;11.10;;;;;;;;;;5053624;28;20029;-56
2022/01/19 08:47:34;;;;;;;13.10;10.27;;;;;;;;;;5052886;28;20473;-57
2022/01/19 08:50:00;;;;;;;20.80;13.00;;;;;;;;;;5052728;28;20036;-53
2022/01/19 08:52:26;;;;;;;17.13;11.20;;;;;;;;;;5053262;28;20029;-56
2022/01/19 08:54:52;;;;;;;13.20;10.90;;;;;;;;;;5054266;28;20390;-56
2022/01/19 08:57:18;;;;;;;13.90;11.63;;;;;;;;;;5053626;28;20086;-54
2022/01/19 08:59:44;;;;;;;19.17;11.07;;;;;;;;;;5053380;28;20505;-53
2022/01/19 09:02:11;;;;;;;16.67;12.97;;;;;;;;;;5052427;28;20060;-57
2022/01/19 09:04:37;;;;;;;13.53;12.13;;;;;;;;;;5053476;28;20037;-54
2022/01/19 09:07:03;;;;;;;18.10;12.23;;;;;;;;;;5052807;28;20106;-57
2022/01/19 09:09:29;;;;;;;17.23;12.83;;;;;;;;;;5052903;28;20033;-52
2022/01/19 09:11:55;;;;;;;21.53;14.23;;;;;;;;;;5052270;28;20021;-53
2022/01/19 09:14:21;;;;;;;15.87;11.87;;;;;;;;;;5045333;28;20491;-57
2022/01/19 09:16:49;;;;;;;15.60;12.53;;;;;;;;;;5053283;28;20112;-52
2022/01/19 09:19:16;;;;;;;15.07;12.50;;;;;;;;;;5044983;28;20041;-56
2022/01/19 09:21:42;;;;;;;17.23;13.13;;;;;;;;;;5052552;28;20041;-55
2022/01/19 09:24:10;;;;;;;18.43;13.23;;;;;;;;;;5052723;28;20094;-55
2022/01/19 09:26:36;;;;;;;13.03;11.37;;;;;;;;;;5052921;28;20033;-57
2022/01/19 09:29:03;;;;;;;18.20;13.00;;;;;;;;;;5052606;28;20033;-56
2022/01/19 09:31:29;;;;;;;15.77;12.67;;;;;;;;;;5052924;28;20117;-53
2022/01/19 09:34:06;;;;;;;18.07;11.80;;;;;;;;;;5052706;28;20133;-57
2022/01/19 09:36:34;;;;;;;15.53;12.60;;;;;;;;;;5053154;28;20037;-57
2022/01/19 09:39:00;;;;;;;14.40;12.27;;;;;;;;;;5051158;28;20041;-57
2022/01/19 09:41:26;;;;;;;16.40;11.87;;;;;;;;;;5052687;28;20040;-57
2022/01/19 09:43:52;;;;;;;19.30;12.30;;;;;;;;;;5052535;28;20024;-56
2022/01/19 09:46:18;;;;;;;14.17;11.43;;;;;;;;;;5051710;28;20040;-55
2022/01/19 09:48:44;;;;;;;15.50;12.80;;;;;;;;;;5052346;28;20040;-57
2022/01/19 09:51:12;;;;;;;18.13;11.07;;;;;;;;;;5052514;28;20048;-53
2022/01/19 09:53:38;;;;;;;12.93;11.17;;;;;;;;;;5052502;28;20113;-54
2022/01/19 09:56:04;;;;;;;15.70;11.80;;;;;;;;;;5052584;28;20116;-55
2022/01/19 09:58:30;;;;;;;15.53;11.90;;;;;;;;;;5050854;28;20029;-56
2022/01/19 10:00:56;;;;;;;12.23;10.33;;;;;;;;;;5051914;28;20040;-56
2022/01/19 10:03:23;;;;;;;20.27;11.43;;;;;;;;;;5051695;28;20036;-53
2022/01/19 10:05:58;;;;;;;14.60;11.80;;;;;;;;;;5051734;28;20031;-55
2022/01/19 10:08:32;;;;;;;12.67;11.07;;;;;;;;;;5050896;28;20069;-55
2022/01/19 10:11:05;;;;;;;15.13;12.23;;;;;;;;;;5051074;28;20039;-56
2022/01/19 10:17:02;;;;;;;15.47;10.23;;;;;;;;;;5050371;28;20035;-56
2022/01/19 10:19:28;;;;;;;12.13;9.63;;;;;;;;;;5043671;28;20032;-57
2022/01/19 10:22:03;;;;;;;13.30;10.77;;;;;;;;;;5050662;28;20029;-56
2022/01/19 10:24:34;;;;;;;17.10;11.47;;;;;;;;;;5050310;28;20151;-55
2022/01/19 10:27:19;;;;;;;14.10;10.03;;;;;;;;;;5049946;28;20024;-53
2022/01/19 10:29:45;;;;;;;15.23;10.60;;;;;;;;;;5051443;28;20036;-57
2022/01/19 10:32:11;;;;;;;15.90;12.70;;;;;;;;;;5050503;28;20078;-55
2022/01/19 10:34:37;;;;;;;15.67;12.53;;;;;;;;;;5051811;28;20033;-55
2022/01/19 10:37:05;;;;;;;16.43;11.73;;;;;;;;;;5050819;28;20394;-53
2022/01/19 10:39:39;;;;;;;15.97;9.53;;;;;;;;;;5049774;28;20128;-55
2022/01/19 10:42:12;;;;;;;15.83;9.97;;;;;;;;;;5051336;28;20524;-56
2022/01/19 10:44:40;;;;;;;16.07;11.43;;;;;;;;;;5051029;28;20052;-54
2022/01/19 10:47:06;;;;;;;11.80;10.37;;;;;;;;;;5051091;28;20020;-55
2022/01/19 10:49:53;;;;;;;10.93;9.77;;;;;;;;;;5050238;28;20043;-55
2022/01/19 10:52:25;;;;;;;15.77;9.53;;;;;;;;;;5043182;28;20035;-56
2022/01/19 10:54:51;;;;;;;12.87;9.60;;;;;;;;;;5051484;28;20039;-56
2022/01/19 10:57:17;;;;;;;11.03;7.90;;;;;;;;;;5051361;28;20056;-56
2022/01/19 10:59:43;;;;;;;14.50;10.17;;;;;;;;;;5050207;28;20033;-57
2022/01/19 11:02:12;;;;;;;11.17;8.93;;;;;;;;;;5051636;28;20313;-56
2022/01/19 11:04:38;;;;;;;15.10;10.13;;;;;;;;;;5051296;28;20037;-55
2022/01/19 11:07:05;;;;;;;12.63;10.03;;;;;;;;;;5051179;28;20052;-57
2022/01/19 11:09:34;;;;;;;12.37;8.43;;;;;;;;;;5051017;28;20040;-57
2022/01/19 11:12:06;;;;;;;14.50;9.13;;;;;;;;;;5051523;28;20051;-57
2022/01/19 11:14:35;;;;;;;13.13;8.33;;;;;;;;;;5050318;28;20037;-57
2022/01/19 11:17:01;;;;;;;13.73;8.38;;;;;;;;;;5051588;28;20021;-57
2022/01/19 11:19:27;;;;;;;9.70;7.73;;;;;;;;;;5049330;28;20386;-57
2022/01/19 11:22:06;;;;;;;11.80;9.03;;;;;;;;;;5051449;28;20059;-57
2022/01/19 11:24:34;;;;;;;13.60;8.32;;;;;;;;;;5049444;28;20025;-57
2022/01/19 11:27:00;;;;;;;11.97;8.20;;;;;;;;;;5050486;28;20029;-56
2022/01/19 11:29:27;;;;;;;10.95;7.70;;;;;;;;;;5050265;28;20029;-56
2022/01/19 11:31:54;;;;;;;12.27;9.60;;;;;;;;;;5051297;28;20029;-57
2022/01/19 11:34:42;;;;;;;12.18;7.57;;;;;;;;;;5050597;28;20033;-55
2022/01/19 11:37:08;;;;;;;11.02;8.13;;;;;;;;;;5051159;28;20061;-55
2022/01/19 11:39:34;;;;;;;11.18;8.15;;;;;;;;;;5050087;28;20049;-56
2022/01/19 11:42:01;;;;;;;11.43;8.55;;;;;;;;;;5046873;28;20029;-57
2022/01/19 11:44:34;;;;;;;11.35;8.82;;;;;;;;;;5049602;28;20032;-56
2022/01/19 11:47:16;;;;;;;11.00;6.65;;;;;;;;;;5050330;28;20108;-57
2022/01/19 11:49:48;;;;;;;13.02;7.75;;;;;;;;;;5043739;28;20059;-57
2022/01/19 11:52:15;;;;;;;11.25;7.68;;;;;;;;;;5050929;28;20113;-58
2022/01/19 11:54:42;;;;;;;11.23;7.65;;;;;;;;;;5051146;28;20032;-57
2022/01/19 11:57:12;;;;;;;8.80;7.85;;;;;;;;;;5051367;28;20087;-56
2022/01/19 11:59:44;;;;;;;9.02;6.80;;;;;;;;;;5049659;28;20041;-57
2022/01/19 12:02:26;;;;;;;14.73;7.78;;;;;;;;;;5050284;28;20064;-57
2022/01/19 12:04:58;;;;;;;13.60;9.65;;;;;;;;;;5050109;28;20036;-54
2022/01/19 12:07:41;;;;;;;11.00;8.70;;;;;;;;;;5050361;28;20033;-55
2022/01/19 12:10:20;;;;;;;11.80;9.98;;;;;;;;;;5048039;28;20037;-56
2022/01/19 12:13:09;;;;;;;22.52;11.10;;;;;;;;;;5048860;28;20029;-56
2022/01/19 12:15:55;;;;;;;12.32;9.43;;;;;;;;;;5047941;28;20064;-55
2022/01/19 12:18:38;;;;;;;11.77;10.13;;;;;;;;;;5044005;28;20428;-57
2022/01/19 12:21:04;;;;;;;11.07;9.93;;;;;;;;;;5045661;28;20079;-57
2022/01/19 12:23:32;;;;;;;13.23;10.17;;;;;;;;;;5048761;28;20057;-57
2022/01/19 12:26:02;;;;;;;14.25;8.82;;;;;;;;;;5038584;28;20025;-57
2022/01/19 12:28:46;;;;;;;22.02;11.02;;;;;;;;;;5051212;28;20390;-54
2022/01/19 12:31:32;;;;;;;15.75;10.98;;;;;;;;;;5052480;28;20048;-56
2022/01/19 12:34:15;;;;;;;12.70;9.88;;;;;;;;;;5054095;28;20055;-53
2022/01/19 12:36:47;;;;;;;16.85;10.05;;;;;;;;;;5048945;28;20318;-53
2022/01/19 12:39:25;;;;;;;18.52;10.55;;;;;;;;;;5053328;28;20399;-54
2022/01/19 12:41:55;;;;;;;17.08;10.02;;;;;;;;;;5053652;28;20108;-54
2022/01/19 12:44:40;;;;;;;13.63;10.43;;;;;;;;;;5053866;28;20310;-57
2022/01/19 12:47:29;;;;;;;13.50;9.93;;;;;;;;;;5053113;28;20033;-53
2022/01/19 12:49:59;;;;;;;12.10;9.80;;;;;;;;;;5048636;28;20091;-55
2022/01/19 12:52:26;;;;;;;14.75;10.55;;;;;;;;;;5053532;28;20063;-55
2022/01/19 12:54:54;;;;;;;14.07;9.40;;;;;;;;;;5053462;28;20025;-56
2022/01/19 12:57:19;;;;;;;15.40;10.45;;;;;;;;;;5053830;28;20379;-56
2022/01/19 12:59:46;;;;;;;16.40;9.13;;;;;;;;;;5053151;28;20033;-54
2022/01/19 13:02:14;;;;;;;14.47;9.10;;;;;;;;;;5053243;28;20418;-55
2022/01/19 13:04:41;;;;;;;11.57;8.20;;;;;;;;;;5053596;28;20051;-57
2022/01/19 13:07:17;;;;;;;11.90;9.33;;;;;;;;;;5053087;28;20034;-55
2022/01/19 13:10:04;;;;;;;13.45;8.30;;;;;;;;;;5052737;28;20043;-56
2022/01/19 13:12:43;;;;;;;10.00;7.05;;;;;;;;;;5053690;28;20021;-57
2022/01/19 13:15:09;;;;;;;15.60;9.27;;;;;;;;;;5052340;28;20032;-56
2022/01/19 13:17:42;;;;;;;8.82;7.20;;;;;;;;;;5052992;28;20339;-56
2022/01/19 13:20:14;;;;;;;10.15;9.10;;;;;;;;;;5052718;28;20049;-57
2022/01/19 13:22:53;;;;;;;10.25;7.88;;;;;;;;;;5052893;28;20386;-57
2022/01/19 13:25:22;;;;;;;9.98;8.00;;;;;;;;;;5053316;28;20029;-56
2022/01/19 13:27:48;;;;;;;10.30;5.95;;;;;;;;;;5052136;28;20075;-55
2022/01/19 13:30:15;;;;;;;7.20;6.28;;;;;;;;;;5052249;28;20029;-55
2022/01/19 13:32:41;;;;;;;8.57;6.60;;;;;;;;;;5052640;28;20029;-52
2022/01/19 13:35:09;;;;;;;10.57;7.57;;;;;;;;;;5052574;28;20078;-57
2022/01/19 13:37:35;;;;;;;7.93;6.63;;;;;;;;;;5051906;28;20418;-57
2022/01/19 13:40:07;;;;;;;10.63;7.18;;;;;;;;;;5051375;28;20079;-56
2022/01/19 13:42:35;;;;;;;12.05;7.22;;;;;;;;;;5049748;28;20460;-55
2022/01/19 13:45:09;;;;;;;16.60;6.68;;;;;;;;;;5052329;28;20097;-57
2022/01/19 13:47:52;;;;;;;9.65;6.57;;;;;;;;;;5050654;28;20432;-54
2022/01/19 13:50:19;;;;;;;6.13;5.28;;;;;;;;;;5050525;28;20037;-56
2022/01/19 13:52:45;;;;;;;11.05;7.00;;;;;;;;;;5050329;28;20040;-57
2022/01/19 13:55:21;;;;;;;8.80;7.15;;;;;;;;;;5050489;28;20546;-56
2022/01/19 13:57:47;;;;;;;11.75;6.63;;;;;;;;;;5050241;28;20031;-55
2022/01/19 14:00:15;;;;;;;7.90;6.10;;;;;;;;;;5050215;28;20471;-57
2022/01/19 14:02:41;;;;;;;7.85;6.25;;;;;;;;;;5049793;28;20028;-57
2022/01/19 14:05:07;;;;;;;8.82;6.15;;;;;;;;;;5051039;28;20032;-55
2022/01/19 14:07:33;;;;;;;11.15;6.82;;;;;;;;;;5051010;28;20069;-56
2022/01/19 14:10:09;;;;;;;7.05;5.82;;;;;;;;;;5051237;28;20067;-56
2022/01/19 14:12:35;;;;;;;8.65;6.53;;;;;;;;;;5050355;28;20107;-54
2022/01/19 14:15:02;;;;;;;9.60;5.30;;;;;;;;;;5051193;28;20032;-58
2022/01/19 14:17:33;;;;;;;12.93;6.63;;;;;;;;;;5052438;28;20094;-56
2022/01/19 14:20:00;;;;;;;8.05;6.13;;;;;;;;;;5051520;28;20041;-56
2022/01/19 14:22:26;;;;;;;7.97;5.85;;;;;;;;;;5050630;28;20086;-55
2022/01/19 14:25:16;;;;;;;9.95;5.90;;;;;;;;;;5052617;28;20029;-55
2022/01/19 14:27:50;;;;;;;9.52;5.13;;;;;;;;;;5052271;28;20033;-54
2022/01/19 14:30:27;;;;;;;6.50;4.90;;;;;;;;;;5051117;28;20068;-57
2022/01/19 14:32:55;;;;;;;6.55;4.78;;;;;;;;;;5051514;28;20470;-55
2022/01/19 14:35:33;;;;;;;6.55;4.00;;;;;;;;;;5051476;28;20163;-54
2022/01/19 14:38:01;;;;;;;4.53;3.65;;;;;;;;;;5051471;28;20159;-57
2022/01/19 14:40:27;;;;;;;8.70;4.30;;;;;;;;;;5051656;28;20064;-55
2022/01/19 14:42:53;;;;;;;6.90;4.50;;;;;;;;;;5042152;28;20022;-58
2022/01/19 14:45:24;;;;;;;6.00;4.30;;;;;;;;;;5051532;28;20029;-55
2022/01/19 14:47:52;;;;;;;5.75;5.10;;;;;;;;;;5051201;28;20039;-57
2022/01/19 14:50:19;;;;;;;9.13;5.15;;;;;;;;;;5051681;28;20037;-57
2022/01/19 14:52:45;;;;;;;7.82;4.68;;;;;;;;;;5050336;28;20401;-56
2022/01/19 14:55:11;;;;;;;6.10;4.13;;;;;;;;;;5051111;28;20070;-57
2022/01/19 14:57:37;;;;;;;10.05;5.75;;;;;;;;;;5051491;28;20025;-57
2022/01/19 15:00:05;;;;;;;9.02;4.78;;;;;;;;;;5050699;28;20037;-54
2022/01/19 15:02:31;;;;;;;8.13;6.15;;;;;;;;;;5050615;28;20068;-58
2022/01/19 15:04:57;;;;;;;10.52;5.45;;;;;;;;;;5051521;28;20467;-56
2022/01/19 15:07:23;;;;;;;9.55;5.93;;;;;;;;;;5050787;28;20083;-57
2022/01/19 15:09:49;;;;;;;8.15;5.03;;;;;;;;;;5050383;28;20040;-57
2022/01/19 15:12:15;;;;;;;7.15;4.28;;;;;;;;;;5051717;28;20104;-56
2022/01/19 15:14:41;;;;;;;6.95;5.25;;;;;;;;;;5050722;28;20041;-54
2022/01/19 15:17:09;;;;;;;6.95;4.85;;;;;;;;;;5050850;28;20047;-57
2022/01/19 15:19:35;;;;;;;8.20;5.63;;;;;;;;;;5050184;28;20075;-57
2022/01/19 15:22:01;;;;;;;9.75;7.13;;;;;;;;;;5051401;28;20029;-56
2022/01/19 15:24:27;;;;;;;8.97;5.37;;;;;;;;;;5050834;28;20036;-57
2022/01/19 15:26:53;;;;;;;6.47;5.28;;;;;;;;;;5050722;28;20040;-55
2022/01/19 15:29:19;;;;;;;9.50;6.40;;;;;;;;;;5050563;28;20037;-56
2022/01/19 15:31:48;;;;;;;10.90;6.47;;;;;;;;;;5050924;28;20128;-54
2022/01/19 15:34:14;;;;;;;8.02;6.50;;;;;;;;;;5050269;28;20073;-55
2022/01/19 15:36:40;;;;;;;10.67;6.27;;;;;;;;;;5051275;28;20532;-57
2022/01/19 15:39:08;;;;;;;8.87;6.20;;;;;;;;;;5050685;28;20029;-55
2022/01/19 15:41:33;;;;;;;12.13;6.72;;;;;;;;;;5050237;28;20104;-57
2022/01/19 15:43:59;;;;;;;8.40;6.15;;;;;;;;;;5051072;28;20586;-56
2022/01/19 15:46:25;;;;;;;12.82;7.22;;;;;;;;;;5051176;28;20463;-57
2022/01/19 15:48:51;;;;;;;9.82;6.32;;;;;;;;;;5050068;28;20451;-56
2022/01/19 15:51:17;;;;;;;10.90;8.65;;;;;;;;;;5051201;28;20060;-55